Time;durP1;ratioP1;P1;durP2;ratioP2;P2;SDS_P1;SDS_P2;PMS_P1;PMS_P2;Temp;Humidity;BMP_temperature;BMP_pressure;BME280_temperature;BME280_humidity;BME280_pressure;Samples;Min_cycle;Max_cycle;Signal;HPM_P1;HPM_P2
2021/11/10 00:00:14;;;;;;;;;24.75;21.50;;;;;17.52;74.62;102456.59;146601;634;46016;-70
2021/11/10 00:02:48;;;;;;;;;19.25;17.75;;;;;17.50;74.10;102452.97;146604;635;46021;-70
2021/11/10 00:05:22;;;;;;;;;19.75;17.25;;;;;17.48;73.64;102455.53;146602;594;46016;-71
2021/11/10 00:07:56;;;;;;;;;23.00;18.25;;;;;17.44;73.00;102450.94;146604;579;45020;-70
2021/11/10 00:10:30;;;;;;;;;16.00;15.50;;;;;17.40;73.27;102453.34;146598;583;47010;-70
2021/11/10 00:16:03;;;;;;;;;13.00;13.00;;;;;17.33;73.22;102473.13;146604;690;46016;-70
2021/11/10 00:18:37;;;;;;;;;11.00;10.75;;;;;17.29;73.01;102473.78;146607;572;46021;-70
2021/11/10 00:21:11;;;;;;;;;13.00;13.00;;;;;17.27;73.53;102481.56;146601;594;46016;-70
2021/11/10 00:23:45;;;;;;;;;15.50;12.50;;;;;17.25;72.56;102474.44;146606;570;46022;-70
2021/11/10 00:26:19;;;;;;;;;17.00;14.25;;;;;17.24;72.99;102475.25;146602;582;46016;-69
2021/11/10 00:28:54;;;;;;;;;18.00;15.00;;;;;17.24;73.18;102475.25;146607;646;46020;-71
2021/11/10 00:31:28;;;;;;;;;13.00;12.25;;;;;17.27;72.70;102475.41;146603;573;46017;-73
2021/11/10 00:34:02;;;;;;;;;17.50;16.00;;;;;17.30;73.56;102471.22;146604;566;46013;-72
2021/11/10 00:36:36;;;;;;;;;13.00;11.75;;;;;17.34;74.34;102458.28;146602;610;46016;-71
2021/11/10 00:39:10;;;;;;;;;14.75;14.25;;;;;17.34;74.33;102453.03;146604;669;47013;-75
2021/11/10 00:41:44;;;;;;;;;15.75;14.50;;;;;17.32;73.95;102460.84;146603;659;46919;-73
2021/11/10 00:44:18;;;;;;;;;17.50;15.75;;;;;17.27;74.23;102467.56;146607;633;46012;-73
2021/11/10 00:46:57;;;;;;;;;19.75;14.75;;;;;17.17;75.31;102432.09;146605;598;46012;-76
2021/11/10 00:49:31;;;;;;;;;16.75;15.25;;;;;17.06;74.71;102444.63;146606;674;46012;-74
2021/11/10 00:52:05;;;;;;;;;17.75;15.00;;;;;17.01;74.56;102451.38;146604;701;47012;-77
2021/11/10 00:54:39;;;;;;;;;16.25;14.75;;;;;16.98;74.96;102448.59;146605;656;46021;-78
2021/11/10 00:57:13;;;;;;;;;17.75;15.50;;;;;16.95;74.47;102453.69;146605;656;46012;-77
2021/11/10 00:59:47;;;;;;;;;15.50;13.50;;;;;16.89;75.51;102461.22;146603;651;46020;-77
2021/11/10 01:02:21;;;;;;;;;23.50;18.25;;;;;16.81;75.97;102455.53;146603;607;46016;-79
2021/11/10 01:04:55;;;;;;;;;19.50;17.75;;;;;16.76;76.25;102469.22;146606;714;46020;-77
2021/11/10 01:07:29;;;;;;;;;16.50;16.50;;;;;16.71;75.97;102468.03;146600;611;46017;-77
2021/11/10 01:10:03;;;;;;;;;15.50;14.00;;;;;16.66;76.93;102459.94;146605;572;46021;-77
2021/11/10 01:12:37;;;;;;;;;25.00;20.00;;;;;16.66;76.67;102456.41;146602;637;46016;-77
2021/11/10 01:15:14;;;;;;;;;16.25;13.75;;;;;16.66;76.67;102459.03;146605;590;46020;-79
2021/11/10 01:17:48;;;;;;;;;23.00;17.75;;;;;16.56;75.81;102444.53;146600;564;47012;-80
2021/11/10 01:20:22;;;;;;;;;18.50;16.50;;;;;16.66;75.94;102459.03;146604;631;46020;-73
2021/11/10 01:22:56;;;;;;;;;24.00;17.00;;;;;16.69;76.17;102453.97;146603;629;46016;-74
2021/11/10 01:25:30;;;;;;;;;19.25;17.25;;;;;16.70;75.86;102451.44;146601;579;46020;-73
2021/11/10 01:28:04;;;;;;;;;20.75;19.50;;;;;16.73;75.94;102445.44;146604;669;46016;-74
2021/11/10 01:30:42;;;;;;;;;19.00;15.00;;;;;16.76;75.59;102451.81;146607;567;46033;-74
2021/11/10 01:33:16;;;;;;;;;19.00;16.25;;;;;16.79;75.93;102443.19;146605;579;46016;-71
2021/11/10 01:35:50;;;;;;;;;20.25;17.50;;;;;16.82;76.24;102448.59;146604;577;46020;-72
2021/11/10 01:38:24;;;;;;;;;20.75;19.75;;;;;16.86;76.23;102445.34;146602;607;46017;-71
2021/11/10 01:40:59;;;;;;;;;19.25;17.25;;;;;16.90;76.14;102456.87;146606;581;46020;-72
2021/11/10 01:43:33;;;;;;;;;15.75;15.75;;;;;16.92;75.70;102461.38;146603;568;46016;-72
2021/11/10 01:46:07;;;;;;;;;16.25;13.25;;;;;16.93;75.79;102455.31;146607;564;46020;-73
2021/11/10 01:48:40;;;;;;;;;17.00;14.25;;;;;16.94;75.72;102459.72;146605;595;46012;-73
2021/11/10 01:51:15;;;;;;;;;14.00;13.00;;;;;16.94;75.27;102464.06;146606;580;46010;-73
2021/11/10 01:53:48;;;;;;;;;17.00;15.00;;;;;16.93;75.50;102462.28;146602;595;46017;-72
2021/11/10 01:56:23;;;;;;;;;15.67;14.00;;;;;16.89;75.96;102471.69;146607;563;46010;-72
2021/11/10 01:58:56;;;;;;;;;17.00;16.00;;;;;16.83;76.16;102476.59;146602;593;46032;-72
2021/11/10 02:01:30;;;;;;;;;15.75;12.75;;;;;16.80;76.14;102469.47;146608;621;46010;-73
2021/11/10 02:04:04;;;;;;;;;19.00;18.00;;;;;16.78;76.41;102471.09;146604;573;47012;-72
2021/11/10 02:06:39;;;;;;;;;9.25;8.25;;;;;16.81;75.69;102473.87;146604;570;46020;-73
2021/11/10 02:09:13;;;;;;;;;12.00;11.00;;;;;16.80;76.11;102469.47;146603;645;46016;-73
2021/11/10 02:11:47;;;;;;;;;12.50;11.75;;;;;16.82;76.33;102473.09;146605;624;46020;-73
2021/11/10 02:14:25;;;;;;;;;12.67;10.00;;;;;16.84;75.93;102478.41;146602;671;46017;-73
2021/11/10 02:17:00;;;;;;;;;16.50;13.50;;;;;16.87;76.00;102481.19;146601;593;46021;-73
2021/11/10 02:19:34;;;;;;;;;15.67;13.67;;;;;16.90;75.97;102477.81;146604;655;45918;-71
2021/11/10 02:22:08;;;;;;;;;15.33;10.67;;;;;16.90;76.11;102491.81;146605;627;45021;-70
2021/11/10 02:24:43;;;;;;;;;11.67;9.00;;;;;16.90;76.10;102488.31;146604;593;46016;-67
2021/11/10 02:27:22;;;;;;;;;13.00;9.67;;;;;16.90;75.62;102483.97;146607;569;46020;-69
2021/11/10 02:29:56;;;;;;;;;13.00;12.00;;;;;16.90;76.41;102490.94;146606;686;45022;-68
2021/11/10 02:32:30;;;;;;;;;8.33;8.33;;;;;16.89;76.08;102492.66;146607;653;46010;-68
2021/11/10 02:35:04;;;;;;;;;10.33;10.33;;;;;16.89;75.89;102492.66;146604;577;46016;-70
2021/11/10 02:37:38;;;;;;;;;13.67;12.00;;;;;16.89;75.91;102497.00;146607;564;46011;-69
2021/11/10 02:40:13;;;;;;;;;13.00;11.00;;;;;16.84;76.42;102499.34;146603;629;46016;-70
2021/11/10 02:42:47;;;;;;;;;14.75;12.75;;;;;16.77;76.75;102513.84;146604;606;46032;-76
2021/11/10 02:45:22;;;;;;;;;10.00;9.00;;;;;16.73;76.02;102518.78;146603;664;46016;-75
2021/11/10 02:47:57;;;;;;;;;12.00;10.00;;;;;16.65;76.54;102512.25;146607;587;46020;-76
2021/11/10 02:50:35;;;;;;;;;13.33;11.67;;;;;16.62;76.31;102519.09;146608;597;46012;-74
2021/11/10 02:53:09;;;;;;;;;12.00;10.67;;;;;16.63;76.19;102514.75;146606;668;46020;-73
2021/11/10 02:55:43;;;;;;;;;12.33;10.67;;;;;16.65;76.52;102507.00;146604;613;47012;-74
2021/11/10 02:58:17;;;;;;;;;11.00;10.33;;;;;16.68;75.90;102512.41;146605;564;46020;-74
2021/11/10 03:00:51;;;;;;;;;9.25;9.00;;;;;16.71;75.91;102516.09;146603;579;46017;-75
2021/11/10 03:03:25;;;;;;;;;10.00;9.33;;;;;16.73;75.71;102526.62;146608;672;46020;-71
2021/11/10 03:06:00;;;;;;;;;10.33;8.33;;;;;16.75;75.48;102531.19;146604;566;46016;-73
2021/11/10 03:08:34;;;;;;;;;11.67;10.33;;;;;16.79;75.43;102532.25;146606;625;46020;-74
2021/11/10 03:11:08;;;;;;;;;9.75;9.75;;;;;16.77;74.49;102536.53;146603;577;46016;-74
2021/11/10 03:13:42;;;;;;;;;6.00;6.00;;;;;16.74;72.71;102539.84;146609;576;45021;-73
2021/11/10 03:16:16;;;;;;;;;5.67;5.67;;;;;16.72;73.28;102545.81;146604;596;47012;-72
2021/11/10 03:18:50;;;;;;;;;7.00;7.00;;;;;16.72;74.29;102549.31;146608;658;46030;-72
2021/11/10 03:21:24;;;;;;;;;12.67;9.00;;;;;16.69;75.15;102554.38;146606;566;46013;-72
2021/11/10 03:23:57;;;;;;;;;10.00;8.75;;;;;16.67;75.18;102558.66;146607;612;46020;-74
2021/11/10 03:26:31;;;;;;;;;12.33;8.67;;;;;16.65;75.57;102559.37;146606;566;46016;-72
2021/11/10 03:29:06;;;;;;;;;10.00;7.75;;;;;16.66;75.09;102562.06;146606;665;46012;-72
2021/11/10 03:31:41;;;;;;;;;10.00;9.50;;;;;16.63;75.33;102565.44;146604;614;46012;-73
2021/11/10 03:34:16;;;;;;;;;8.25;7.25;;;;;16.60;74.92;102567.91;146607;657;45020;-71
2021/11/10 03:36:50;;;;;;;;;8.33;6.33;;;;;16.57;75.53;102574.66;146603;638;46017;-71
2021/11/10 03:39:24;;;;;;;;;11.67;9.33;;;;;16.57;75.21;102572.97;146606;611;46020;-73
2021/11/10 03:41:59;;;;;;;;;9.00;7.25;;;;;16.56;74.71;102565.00;146607;573;46012;-73
2021/11/10 03:44:33;;;;;;;;;9.33;8.33;;;;;16.56;74.82;102571.12;146607;615;46020;-74
2021/11/10 03:47:07;;;;;;;;;8.00;6.75;;;;;16.56;74.84;102579.00;146605;582;46012;-74
2021/11/10 03:49:41;;;;;;;;;7.33;7.33;;;;;16.54;74.31;102582.34;146607;573;46021;-72
2021/11/10 03:52:15;;;;;;;;;9.75;7.50;;;;;16.54;74.84;102583.25;146604;583;47012;-72
2021/11/10 03:54:50;;;;;;;;;7.00;6.33;;;;;16.51;74.29;102570.00;146607;582;46020;-72
2021/11/10 03:57:24;;;;;;;;;7.00;5.67;;;;;16.49;73.82;102583.81;146607;572;46012;-71
2021/11/10 03:59:58;;;;;;;;;6.00;5.67;;;;;15.42;73.91;102385.84;146606;597;46020;-77
2021/11/10 04:02:32;;;;;;;;;5.00;3.67;;;;;16.47;74.21;102586.34;146622;607;46016;-73
2021/11/10 04:05:06;;;;;;;;;5.00;5.00;;;;;16.45;74.12;102585.38;146606;569;46021;-72
2021/11/10 04:07:40;;;;;;;;;4.33;3.00;;;;;16.44;74.15;102580.91;146606;595;45919;-76
2021/11/10 04:10:14;;;;;;;;;5.50;5.50;;;;;16.40;73.55;102589.41;146609;582;46012;-73
2021/11/10 04:12:48;;;;;;;;;4.67;4.33;;;;;16.33;73.54;102585.56;146605;679;46020;-77
2021/11/10 04:15:21;;;;;;;;;6.33;5.00;;;;;16.28;73.54;102583.47;146608;613;46020;-77
2021/11/10 04:17:55;;;;;;;;;8.33;5.00;;;;;15.33;74.21;102424.50;146603;665;46016;-77
2021/11/10 04:20:30;;;;;;;;;7.00;4.67;;;;;16.24;73.99;102591.97;146608;561;46021;-77
2021/11/10 04:23:04;;;;;;;;;6.67;6.00;;;;;16.25;73.92;102596.41;146604;630;46016;-75
2021/11/10 04:25:38;;;;;;;;;7.67;4.00;;;;;16.24;73.69;102607.69;146609;584;46010;-75
2021/11/10 04:28:11;;;;;;;;;2.00;2.00;;;;;16.22;73.46;102612.81;146603;586;46016;-75
2021/11/10 04:30:45;;;;;;;;;4.67;4.67;;;;;16.25;73.88;102617.34;146608;599;46020;-72
2021/11/10 04:33:19;;;;;;;;;4.00;4.00;;;;;16.25;73.41;102617.34;146603;598;46016;-72
2021/11/10 04:35:54;;;;;;;;;3.67;3.67;;;;;16.26;73.13;102624.34;146607;596;46021;-72
2021/11/10 04:38:28;;;;;;;;;4.00;3.00;;;;;16.25;72.75;102620.84;146604;577;46016;-72
2021/11/10 04:41:02;;;;;;;;;2.67;2.67;;;;;16.23;72.94;102629.41;146606;573;47012;-72
2021/11/10 04:43:36;;;;;;;;;6.00;4.67;;;;;16.17;72.58;102633.50;146606;586;46017;-71
2021/11/10 04:46:17;;;;;;;;;4.67;4.67;;;;;16.08;72.83;102632.97;146607;650;46912;-71
2021/11/10 04:48:51;;;;;;;;;5.00;4.67;;;;;16.04;73.61;102630.06;146605;592;46017;-73
2021/11/10 04:51:28;;;;;;;;;4.33;3.00;;;;;16.01;73.11;102641.25;146606;564;47010;-84
2021/11/10 04:54:07;;;;;;;;;3.33;3.33;;;;;16.00;72.66;102644.66;146604;607;46016;-79
2021/11/10 04:56:42;;;;;;;;;5.33;3.33;;;;;16.00;72.79;102639.44;146609;587;45021;-79
2021/11/10 04:59:16;;;;;;;;;5.67;1.33;;;;;15.97;72.50;102641.88;146603;613;46016;-75
2021/11/10 05:04:57;;;;;;;;;4.00;3.33;;;;;15.85;72.73;102644.66;146604;608;46016;-72
2021/11/10 05:07:31;;;;;;;;;3.00;3.00;;;;;15.79;72.48;102652.12;146607;642;46020;-74
2021/11/10 05:10:07;;;;;;;;;5.00;4.00;;;;;15.77;72.54;102664.22;146606;612;47012;-73
2021/11/10 05:12:41;;;;;;;;;4.00;3.00;;;;;15.73;72.32;102662.22;146606;584;46021;-73
2021/11/10 05:15:15;;;;;;;;;1.67;1.67;;;;;15.71;72.56;102669.09;146604;644;46024;-73
2021/11/10 05:17:49;;;;;;;;;4.67;4.67;;;;;15.71;72.35;102682.16;146606;569;46022;-73
2021/11/10 05:20:23;;;;;;;;;9.33;5.67;;;;;15.69;72.18;102675.91;146604;564;46016;-74
2021/11/10 05:22:57;;;;;;;;;8.67;6.00;;;;;15.68;72.15;102685.47;146606;642;46020;-73
2021/11/10 05:25:31;;;;;;;;;5.33;4.67;;;;;15.70;72.53;102701.28;146603;656;46016;-71
2021/11/10 05:28:05;;;;;;;;;4.67;4.33;;;;;15.68;71.81;102700.28;146608;599;46010;-77
2021/11/10 05:30:39;;;;;;;;;5.00;2.67;;;;;15.64;72.39;102704.37;146604;601;46016;-75
2021/11/10 05:36:58;;;;;;;;;7.33;6.33;;;;;15.60;72.35;102715.44;146607;574;46016;-73
2021/11/10 05:39:33;;;;;;;;;3.00;2.00;;;;;15.57;71.78;102716.97;146606;596;46020;-73
2021/11/10 05:42:08;;;;;;;;;3.33;3.00;;;;;15.48;70.85;102705.16;146603;650;46017;-73
2021/11/10 05:44:42;;;;;;;;;4.33;3.00;;;;;15.41;71.02;102704.63;146604;571;46020;-75
2021/11/10 05:47:16;;;;;;;;;5.33;4.00;;;;;15.35;71.74;102712.09;146604;570;46016;-72
2021/11/10 05:49:50;;;;;;;;;5.67;2.67;;;;;15.30;71.17;102713.53;146607;570;47013;-74
2021/11/10 05:52:23;;;;;;;;;5.67;4.67;;;;;15.26;72.00;102725.47;146605;598;46012;-74
2021/11/10 05:54:57;;;;;;;;;4.67;3.33;;;;;15.23;71.54;102730.50;146607;576;46020;-74
2021/11/10 05:57:31;;;;;;;;;4.67;3.33;;;;;15.23;71.54;102722.66;146603;573;46017;-75
2021/11/10 06:00:06;;;;;;;;;3.00;2.67;;;;;15.24;71.54;102730.63;146608;588;46020;-73
2021/11/10 06:02:40;;;;;;;;;3.00;3.00;;;;;15.21;71.18;102733.03;146605;618;47012;-73
2021/11/10 06:05:17;;;;;;;;;4.00;3.00;;;;;15.19;71.34;102736.34;146609;642;46010;-72
2021/11/10 06:07:50;;;;;;;;;3.67;3.67;;;;;15.18;71.19;102734.56;146605;643;47012;-70
2021/11/10 06:10:25;;;;;;;;;5.00;4.33;;;;;15.17;71.15;102744.09;146606;593;46021;-70
2021/11/10 06:13:02;;;;;;;;;1.67;1.67;;;;;15.19;71.29;102758.16;146606;598;46012;-72
2021/11/10 06:15:36;;;;;;;;;4.00;4.00;;;;;15.22;70.95;102760.97;146609;593;46010;-73
2021/11/10 06:18:10;;;;;;;;;4.67;3.00;;;;;15.22;71.13;102755.75;146606;604;46012;-72
2021/11/10 06:20:44;;;;;;;;;25.00;22.00;;;;;15.25;70.92;102776.84;146605;638;46020;-72
2021/11/10 06:23:18;;;;;;;;;3.33;2.33;;;;;15.27;70.94;102778.69;146605;565;46012;-73
2021/11/10 06:25:52;;;;;;;;;8.75;6.25;;;;;15.29;70.55;102759.66;146604;657;46022;-73
2021/11/10 06:28:26;;;;;;;;;7.67;6.00;;;;;15.30;70.64;102776.25;146608;629;46012;-73
2021/11/10 06:31:00;;;;;;;;;7.67;4.33;;;;;15.33;70.80;102795.66;146608;594;47010;-73
2021/11/10 06:33:35;;;;;;;;;9.00;6.67;;;;;15.36;71.35;102792.34;146602;590;46016;-70
2021/11/10 06:36:09;;;;;;;;;6.33;5.00;;;;;15.43;70.99;102790.22;146613;613;46010;-70
2021/11/10 06:38:46;;;;;;;;;7.00;5.33;;;;;15.48;70.50;102795.72;146605;606;46016;-70
2021/11/10 06:41:20;;;;;;;;;4.33;2.67;;;;;15.48;70.15;102798.31;146611;608;46021;-70
2021/11/10 06:43:55;;;;;;;;;6.67;4.67;;;;;15.52;70.57;102802.06;146607;670;47018;-74
2021/11/10 06:46:28;;;;;;;;;4.67;4.33;;;;;15.55;70.38;102805.78;146613;665;45020;-73
2021/11/10 06:49:02;;;;;;;;;1.67;1.67;;;;;15.59;70.59;102806.88;146608;588;47919;-74
2021/11/10 06:51:37;;;;;;;;;5.67;5.67;;;;;15.62;70.61;102810.59;146610;609;46012;-74
2021/11/10 06:54:13;;;;;;;;;7.67;5.67;;;;;15.62;70.30;102813.22;146606;651;46016;-73
2021/11/10 06:56:48;;;;;;;;;11.67;7.00;;;;;15.61;70.29;102816.63;146609;677;46021;-71
2021/11/10 06:59:23;;;;;;;;;4.33;3.00;;;;;15.60;70.00;102822.66;146607;694;46016;-74
2021/11/10 07:01:57;;;;;;;;;4.67;3.67;;;;;15.59;70.18;102827.81;146608;585;46020;-75
2021/11/10 07:04:31;;;;;;;;;4.00;3.00;;;;;15.59;70.71;102825.19;146608;677;46919;-75
2021/11/10 07:07:05;;;;;;;;;6.00;5.25;;;;;15.61;70.18;102832.31;146605;624;46020;-75
2021/11/10 07:09:39;;;;;;;;;9.00;8.75;;;;;15.63;69.90;102846.38;146607;674;46016;-72
2021/11/10 07:12:14;;;;;;;;;6.33;5.00;;;;;15.65;69.37;102836.03;146609;584;46020;-70
2021/11/10 07:14:47;;;;;;;;;4.00;4.00;;;;;15.65;69.07;102841.28;146605;685;46016;-70
2021/11/10 07:17:23;;;;;;;;;6.33;5.33;;;;;15.64;69.08;102848.22;146608;634;46012;-71
2021/11/10 07:19:56;;;;;;;;;7.00;6.67;;;;;15.63;69.30;102838.53;146608;620;46019;-71
2021/11/10 07:22:30;;;;;;;;;6.00;5.00;;;;;15.62;69.10;102826.28;146612;595;45020;-71
2021/11/10 07:25:04;;;;;;;;;11.50;9.00;;;;;15.64;68.93;102836.84;146604;697;47012;-71
2021/11/10 07:27:38;;;;;;;;;10.75;9.75;;;;;15.64;69.31;102847.31;146608;667;46020;-70
2021/11/10 07:30:16;;;;;;;;;9.00;7.33;;;;;15.65;70.12;102844.78;146613;640;45016;-70
2021/11/10 07:32:50;;;;;;;;;11.00;8.00;;;;;15.66;70.15;102846.59;146619;633;45021;-70
2021/11/10 07:35:24;;;;;;;;;10.00;9.33;;;;;15.69;69.97;102852.03;146616;579;46918;-69
2021/11/10 07:37:58;;;;;;;;;9.67;7.67;;;;;15.70;69.65;102853.87;146615;590;45020;-69
2021/11/10 07:40:32;;;;;;;;;4.67;4.67;;;;;15.74;70.03;102861.91;146615;580;46012;-69
2021/11/10 07:43:06;;;;;;;;;7.67;6.00;;;;;15.77;69.79;102862.12;146617;573;45020;-72
2021/11/10 07:45:43;;;;;;;;;6.00;4.00;;;;;15.81;69.68;102872.84;146612;571;45040;-71
2021/11/10 07:48:19;;;;;;;;;6.33;5.00;;;;;15.82;68.79;102871.13;146614;569;46021;-69
2021/11/10 07:50:53;;;;;;;;;5.33;5.33;;;;;15.85;68.87;102873.97;146614;656;46012;-69
2021/11/10 07:53:27;;;;;;;;;5.33;5.00;;;;;15.86;68.54;102873.19;146607;618;46020;-69
2021/11/10 07:56:01;;;;;;;;;3.67;2.67;;;;;15.87;68.50;102870.63;146617;578;46012;-69
2021/11/10 07:58:35;;;;;;;;;3.00;3.00;;;;;15.90;68.26;102872.56;146618;587;45031;-70
2021/11/10 08:01:14;;;;;;;;;4.67;4.67;;;;;15.93;68.30;102873.66;146611;610;45918;-71
2021/11/10 08:03:50;;;;;;;;;4.67;4.00;;;;;15.98;67.52;102876.56;146617;610;46010;-71
2021/11/10 08:06:24;;;;;;;;;3.67;2.00;;;;;15.98;67.67;102881.81;146612;613;46012;-71
2021/11/10 08:08:58;;;;;;;;;3.33;2.00;;;;;16.00;67.04;102885.41;146615;610;46912;-71
2021/11/10 08:11:32;;;;;;;;;5.33;3.00;;;;;16.01;66.62;102887.22;146616;555;46012;-71
2021/11/10 08:14:06;;;;;;;;;5.00;3.00;;;;;16.00;67.21;102885.41;146616;687;46020;-71
2021/11/10 08:16:41;;;;;;;;;2.67;2.33;;;;;16.01;66.27;102889.84;146614;622;46020;-71
2021/11/10 08:19:15;;;;;;;;;3.00;1.33;;;;;16.02;66.39;102886.41;146612;563;45029;-71
2021/11/10 08:21:49;;;;;;;;;4.67;3.00;;;;;16.04;66.26;102881.25;146617;602;45016;-71
2021/11/10 08:24:30;;;;;;;;;7.75;4.75;;;;;16.06;67.14;102879.66;146612;564;46020;-72
2021/11/10 08:27:04;;;;;;;;;3.33;3.33;;;;;16.10;65.62;102879.94;146614;655;45020;-72
2021/11/10 08:29:38;;;;;;;;;6.00;4.67;;;;;15.15;65.45;102716.97;146614;563;46012;-73
2021/11/10 08:32:12;;;;;;;;;4.67;3.33;;;;;16.16;65.77;102880.31;146612;675;46017;-73
2021/11/10 08:34:46;;;;;;;;;7.33;6.33;;;;;16.22;67.13;102874.56;146617;571;46012;-72
2021/11/10 08:37:20;;;;;;;;;4.67;4.00;;;;;16.26;65.52;102873.97;146615;582;46012;-72
2021/11/10 08:40:04;;;;;;;;;5.67;5.33;;;;;16.32;65.71;102874.34;146615;639;45025;-73
2021/11/10 08:42:38;;;;;;;;;4.33;4.33;;;;;16.37;65.73;102885.09;146613;644;45016;-72
2021/11/10 08:45:19;;;;;;;;;7.00;4.00;;;;;16.40;63.73;102894.03;146610;578;45020;-72
2021/11/10 08:47:57;;;;;;;;;55.25;29.50;;;;;16.44;65.27;102887.28;146609;698;46016;-72
2021/11/10 08:50:31;;;;;;;;;5.33;5.33;;;;;16.49;65.29;102883.25;146610;570;46020;-78
2021/11/10 08:53:06;;;;;;;;;5.00;5.00;;;;;16.54;64.54;102876.59;146611;617;45916;-76
2021/11/10 08:55:41;;;;;;;;;4.00;3.00;;;;;16.56;64.51;102872.31;146615;583;45021;-75
2021/11/10 08:58:15;;;;;;;;;6.00;2.67;;;;;16.60;64.39;102874.34;146613;596;45916;-76
2021/11/10 09:00:49;;;;;;;;;3.00;3.00;;;;;16.62;63.83;102880.53;146618;637;45029;-76
2021/11/10 09:03:25;;;;;;;;;5.33;4.67;;;;;16.60;64.38;102878.63;146613;569;45041;-75
2021/11/10 09:05:59;;;;;;;;;12.33;8.00;;;;;16.72;63.50;102891.59;146615;584;45020;-76
2021/11/10 09:08:35;;;;;;;;;3.67;3.67;;;;;16.76;63.68;102891.91;146611;588;45916;-76
2021/11/10 09:11:09;;;;;;;;;3.67;3.67;;;;;16.77;64.31;102890.19;146609;590;46008;-74
2021/11/10 09:13:43;;;;;;;;;5.67;4.67;;;;;16.81;64.02;102892.19;146614;693;45020;-75
2021/11/10 09:16:17;;;;;;;;;6.00;4.33;;;;;16.79;64.33;102894.72;146615;572;46021;-75
2021/11/10 09:18:51;;;;;;;;;6.00;5.00;;;;;16.79;64.14;102893.78;146612;577;45916;-74
2021/11/10 09:21:25;;;;;;;;;5.67;5.67;;;;;16.79;63.31;102899.03;146619;593;45020;-74
2021/11/10 09:23:59;;;;;;;;;8.67;6.33;;;;;16.76;63.75;102897.16;146615;605;46020;-74
2021/11/10 09:26:33;;;;;;;;;4.33;4.33;;;;;16.76;63.45;102890.97;146613;608;46020;-74
2021/11/10 09:29:08;;;;;;;;;3.33;3.33;;;;;16.75;59.98;102902.25;146610;636;46016;-74
2021/11/10 09:31:42;;;;;;;;;4.67;3.00;;;;;16.68;57.68;102886.97;146616;571;45021;-77
2021/11/10 09:34:16;;;;;;;;;4.00;2.67;;;;;16.55;57.30;102880.09;146612;585;45020;-74
2021/11/10 09:37:00;;;;;;;;;3.33;3.00;;;;;16.30;57.27;102869.81;146608;585;46020;-75
2021/11/10 09:39:34;;;;;;;;;1.00;1.00;;;;;16.09;53.37;102869.38;146612;670;45042;-74
2021/11/10 09:42:11;;;;;;;;;2.00;2.00;;;;;15.99;55.79;102883.59;146619;644;46010;-74
2021/11/10 09:44:45;;;;;;;;;4.00;2.00;;;;;15.92;57.50;102884.03;146613;628;45020;-75
2021/11/10 09:47:21;;;;;;;;;4.00;4.00;;;;;15.95;60.22;102879.00;146613;583;46020;-74
2021/11/10 09:49:55;;;;;;;;;2.00;2.00;;;;;16.01;55.11;102879.38;146613;584;45918;-74
2021/11/10 09:52:29;;;;;;;;;1.00;1.00;;;;;16.01;54.27;102874.16;146619;573;46010;-74
2021/11/10 09:55:03;;;;;;;;;4.00;1.00;;;;;15.95;57.77;102855.44;146610;571;45919;-74
2021/11/10 09:57:37;;;;;;;;;1.67;1.67;;;;;15.94;53.06;102870.22;146616;633;46020;-76
2021/11/10 10:00:14;;;;;;;;;1.67;1.67;;;;;15.98;58.39;102863.50;146615;588;46013;-74
2021/11/10 10:02:49;;;;;;;;;3.00;1.67;;;;;16.05;57.38;102857.81;146610;585;45021;-75
2021/11/10 10:05:26;;;;;;;;;2.33;2.00;;;;;16.06;54.84;102857.00;146616;630;46016;-74
2021/11/10 10:08:01;;;;;;;;;1.33;1.33;;;;;16.01;56.69;102845.38;146613;663;46020;-72
2021/11/10 10:10:37;;;;;;;;;2.33;2.00;;;;;15.86;54.61;102844.41;146615;597;46012;-75
2021/11/10 10:13:12;;;;;;;;;2.00;2.00;;;;;15.61;53.33;102842.78;146614;710;45020;-74
2021/11/10 10:15:48;;;;;;;;;3.33;2.67;;;;;15.44;53.76;102846.91;146611;625;46017;-75
2021/11/10 10:18:31;;;;;;;;;2.33;2.33;;;;;15.31;56.66;102840.78;146616;566;46012;-74
2021/11/10 10:21:13;;;;;;;;;2.00;1.67;;;;;15.27;57.29;102834.47;146610;571;45918;-74
2021/11/10 10:23:50;;;;;;;;;2.00;2.00;;;;;15.30;56.94;102823.31;146614;571;45021;-76
2021/11/10 10:26:29;;;;;;;;;2.67;2.67;;;;;15.37;56.58;102831.62;146616;658;46012;-75
2021/11/10 10:29:10;;;;;;;;;2.33;1.33;;;;;15.45;57.61;102832.12;146612;593;45020;-74
2021/11/10 10:31:46;;;;;;;;;5.33;4.00;;;;;15.57;59.01;102827.69;146614;586;45045;-73
2021/11/10 10:34:20;;;;;;;;;5.00;5.00;;;;;15.75;56.64;102837.56;146619;626;46010;-72
2021/11/10 10:36:55;;;;;;;;;2.00;2.00;;;;;15.86;57.10;102834.84;146616;585;45028;-73
2021/11/10 10:39:30;;;;;;;;;2.00;2.00;;;;;15.99;57.97;102819.91;146617;585;46021;-73
2021/11/10 10:42:03;;;;;;;;;6.00;6.00;;;;;16.17;61.20;102826.28;146611;703;45918;-74
2021/11/10 10:44:48;;;;;;;;;3.00;2.00;;;;;16.29;53.45;102815.63;146613;706;45020;-73
2021/11/10 10:47:22;;;;;;;;;2.67;2.67;;;;;16.29;55.19;102816.56;146613;625;45021;-74
2021/11/10 10:49:56;;;;;;;;;1.67;1.67;;;;;16.30;54.55;102807.91;146615;630;45020;-72
2021/11/10 10:52:29;;;;;;;;;2.67;2.67;;;;;16.23;51.80;102800.50;146616;592;46013;-73
2021/11/10 10:55:03;;;;;;;;;2.33;2.33;;;;;16.13;53.70;102801.59;146611;565;46031;-74
2021/11/10 10:57:48;;;;;;;;;3.33;3.00;;;;;16.10;55.15;102792.66;146612;647;46016;-74
2021/11/10 11:00:22;;;;;;;;;4.00;4.00;;;;;15.97;52.79;102787.50;146620;579;45030;-81
2021/11/10 11:02:56;;;;;;;;;2.00;1.67;;;;;15.91;53.84;102796.75;146612;624;46012;-80
2021/11/10 11:05:49;;;;;;;;;4.00;3.00;;;;;15.66;53.42;102785.53;146619;565;46010;-80
2021/11/10 11:08:40;;;;;;;;;3.67;2.67;;;;;15.51;54.67;102801.12;146616;615;45017;-82
2021/11/10 11:11:38;;;;;;;;;2.33;2.33;;;;;15.43;54.76;102805.91;146617;575;46010;-74
2021/11/10 11:14:16;;;;;;;;;6.25;6.00;;;;;15.42;57.81;102793.63;146616;570;46012;-81
2021/11/10 11:17:03;;;;;;;;;4.50;3.00;;;;;15.36;56.67;102805.41;146617;577;46012;-83
2021/11/10 11:19:38;;;;;;;;;5.25;5.25;;;;;14.08;56.53;102637.66;146614;583;46012;-81
2021/11/10 11:22:12;;;;;;;;;7.67;5.00;;;;;14.99;58.42;102811.72;146609;583;46021;-78
2021/11/10 11:24:49;;;;;;;;;5.00;4.33;;;;;14.88;59.00;102806.59;146611;597;46012;-75
2021/11/10 11:27:34;;;;;;;;;4.67;4.67;;;;;14.82;58.35;102806.19;146619;626;45020;-81
2021/11/10 11:30:16;;;;;;;;;3.00;3.00;;;;;14.71;58.34;102805.47;146611;564;46017;-77
2021/11/10 11:32:55;;;;;;;;;3.33;2.67;;;;;14.60;57.89;102803.81;146617;569;45020;-79
2021/11/10 11:35:40;;;;;;;;;4.00;4.00;;;;;14.33;56.99;102767.19;146617;679;45031;-79
2021/11/10 11:38:21;;;;;;;;;3.00;3.00;;;;;14.44;57.44;102796.63;146616;679;45021;-78
2021/11/10 11:40:58;;;;;;;;;2.33;2.33;;;;;14.42;56.78;102792.97;146613;645;46012;-79
2021/11/10 11:43:34;;;;;;;;;4.00;3.00;;;;;14.48;57.77;102793.41;146616;660;46020;-78
2021/11/10 11:46:08;;;;;;;;;2.00;2.00;;;;;14.50;56.57;102786.59;146613;618;45021;-79
2021/11/10 11:48:42;;;;;;;;;4.00;3.00;;;;;14.51;56.40;102791.94;146610;612;46012;-78
2021/11/10 11:51:17;;;;;;;;;4.00;3.00;;;;;14.56;56.47;102789.66;146615;570;46012;-79
2021/11/10 11:53:51;;;;;;;;;3.00;2.25;;;;;14.58;55.90;102774.09;146613;582;46020;-80
2021/11/10 11:56:29;;;;;;;;;4.00;4.00;;;;;14.53;55.97;102781.63;146612;596;46012;-79
2021/11/10 11:59:08;;;;;;;;;5.00;4.00;;;;;14.60;57.13;102778.63;146613;572;45021;-77
2021/11/10 12:01:42;;;;;;;;;3.75;3.75;;;;;14.59;56.00;102776.81;146613;741;46012;-78
2021/11/10 12:04:22;;;;;;;;;8.00;3.50;;;;;14.53;56.28;102784.22;146615;630;46020;-79
2021/11/10 12:06:57;;;;;;;;;8.00;6.00;;;;;14.57;58.32;102786.22;146609;612;46017;-79